createdAt,value
2023-02-19T00:01:47.969Z,28.25
2023-02-19T00:04:24.620Z,23.88
2023-02-19T00:06:51.567Z,25.40
2023-02-19T00:09:20.119Z,21.90
2023-02-19T00:11:48.015Z,21.67
2023-02-19T00:14:19.719Z,18.13
2023-02-19T00:16:47.129Z,20.63
2023-02-19T00:19:18.620Z,19.25
2023-02-19T00:21:46.622Z,24.42
2023-02-19T00:24:15.242Z,28.45
2023-02-19T00:26:43.775Z,16.25
2023-02-19T00:29:20.663Z,19.98
2023-02-19T00:31:48.223Z,27.45
2023-02-19T00:34:15.319Z,21.10
2023-02-19T00:36:43.015Z,17.52
2023-02-19T00:39:15.571Z,24.33
2023-02-19T00:41:43.023Z,24.98
2023-02-19T00:44:12.754Z,16.10
2023-02-19T00:46:46.802Z,16.15
2023-02-19T00:49:22.035Z,19.30
2023-02-19T00:51:52.724Z,20.88
2023-02-19T00:54:22.603Z,21.85
2023-02-19T00:56:50.314Z,15.95
2023-02-19T00:59:17.606Z,22.27
2023-02-19T01:01:45.039Z,23.92
2023-02-19T01:04:12.396Z,20.95
2023-02-19T01:06:39.247Z,14.57
2023-02-19T01:09:07.809Z,18.90
2023-02-19T01:11:35.562Z,24.52
2023-02-19T01:14:03.872Z,21.92
2023-02-19T01:16:31.316Z,20.98
2023-02-19T01:18:58.870Z,18.45
2023-02-19T01:21:29.179Z,19.88
2023-02-19T01:23:57.757Z,21.38
2023-02-19T01:26:30.961Z,15.10
2023-02-19T01:28:59.673Z,23.35
2023-02-19T01:31:27.734Z,19.30
2023-02-19T01:34:03.728Z,14.05
2023-02-19T01:36:34.294Z,17.45
2023-02-19T01:39:04.997Z,16.42
2023-02-19T01:41:36.287Z,22.73
2023-02-19T01:44:09.495Z,24.00
2023-02-19T01:46:41.472Z,19.45
2023-02-19T01:49:18.785Z,15.65
2023-02-19T01:51:59.083Z,20.27
2023-02-19T01:54:32.224Z,13.10
2023-02-19T01:57:04.376Z,17.80
2023-02-19T01:59:33.243Z,24.05
2023-02-19T02:02:00.952Z,10.52
2023-02-19T02:04:31.787Z,14.98
2023-02-19T02:07:02.753Z,17.45
2023-02-19T02:09:50.067Z,10.65
2023-02-19T02:12:16.841Z,18.00
2023-02-19T02:14:48.241Z,21.45
2023-02-19T02:17:56.629Z,19.63
2023-02-19T02:20:36.046Z,18.95
2023-02-19T02:23:19.801Z,19.17
2023-02-19T02:26:10.972Z,12.23
2023-02-19T02:29:03.312Z,19.98
2023-02-19T02:31:41.755Z,17.13
2023-02-19T02:34:27.598Z,20.73
2023-02-19T02:36:57.246Z,15.43
2023-02-19T02:39:27.953Z,17.77
2023-02-19T02:42:18.453Z,24.27
2023-02-19T02:45:32.091Z,15.30
2023-02-19T02:47:59.411Z,19.17
2023-02-19T02:50:35.475Z,14.18
2023-02-19T02:53:47.292Z,17.02
2023-02-19T02:56:17.509Z,17.02
2023-02-19T02:58:46.719Z,14.77
2023-02-19T03:01:55.455Z,22.85
2023-02-19T03:04:36.082Z,15.48
2023-02-19T03:07:09.467Z,20.17
2023-02-19T03:09:43.199Z,11.93
2023-02-19T03:12:37.319Z,16.17
2023-02-19T03:15:29.113Z,10.68
2023-02-19T03:18:26.441Z,11.88
2023-02-19T03:20:58.410Z,16.38
2023-02-19T03:23:51.129Z,8.13
2023-02-19T03:26:20.163Z,14.10
2023-02-19T03:29:12.731Z,16.70
2023-02-19T03:34:26.261Z,12.82
2023-02-19T03:37:06.549Z,18.35
2023-02-19T03:39:44.265Z,15.45
2023-02-19T03:42:40.795Z,14.63
2023-02-19T03:45:28.636Z,11.70
2023-02-19T03:48:21.119Z,13.95
2023-02-19T03:51:27.493Z,12.80
2023-02-19T03:54:28.062Z,14.23
2023-02-19T03:57:06.486Z,13.05
2023-02-19T03:59:50.253Z,12.38
2023-02-19T04:02:43.284Z,13.90
2023-02-19T04:05:24.523Z,18.77
2023-02-19T04:08:00.734Z,17.13
2023-02-19T04:10:34.238Z,20.25
2023-02-19T04:13:44.744Z,8.48
2023-02-19T04:16:20.639Z,11.90
2023-02-19T04:18:54.605Z,13.63
2023-02-19T04:21:24.193Z,10.50
2023-02-19T04:23:51.381Z,11.60
2023-02-19T04:26:22.673Z,11.25
2023-02-19T04:28:49.554Z,9.82
2023-02-19T04:31:16.582Z,11.85
2023-02-19T04:33:43.434Z,14.68
2023-02-19T04:36:11.823Z,9.40
2023-02-19T04:38:38.712Z,17.77
2023-02-19T04:41:05.694Z,12.13
2023-02-19T04:43:32.518Z,15.93
2023-02-19T04:46:02.720Z,8.05
2023-02-19T04:48:29.761Z,12.95
2023-02-19T04:50:56.717Z,13.07
2023-02-19T04:53:23.810Z,10.55
2023-02-19T04:55:53.319Z,18.90
2023-02-19T04:58:22.166Z,14.07
2023-02-19T05:00:52.889Z,11.43
2023-02-19T05:03:19.784Z,14.35
2023-02-19T05:05:46.820Z,12.10
2023-02-19T05:08:13.812Z,14.60
2023-02-19T05:10:40.874Z,8.52
2023-02-19T05:13:07.900Z,13.60
2023-02-19T05:15:34.913Z,9.18
2023-02-19T05:18:01.671Z,16.15
2023-02-19T05:20:28.489Z,12.30
2023-02-19T05:22:55.461Z,10.82
2023-02-19T05:25:22.337Z,13.55
2023-02-19T05:27:49.099Z,12.15
2023-02-19T05:30:16.117Z,13.57
2023-02-19T05:32:42.931Z,9.13
2023-02-19T05:35:09.666Z,12.02
2023-02-19T05:37:36.894Z,10.52
2023-02-19T05:40:04.173Z,11.30
2023-02-19T05:42:30.946Z,18.30
2023-02-19T05:44:57.708Z,11.77
2023-02-19T05:47:24.533Z,12.43
2023-02-19T05:49:51.306Z,8.85
2023-02-19T05:52:18.072Z,15.32
2023-02-19T05:54:44.863Z,14.63
2023-02-19T05:57:11.671Z,14.35
2023-02-19T05:59:38.444Z,16.40
2023-02-19T06:02:05.233Z,12.45
2023-02-19T06:04:32.024Z,11.52
2023-02-19T06:06:58.820Z,9.48
2023-02-19T06:09:25.654Z,14.57
2023-02-19T06:11:52.404Z,20.95
2023-02-19T06:14:19.167Z,9.48
2023-02-19T06:16:45.930Z,10.73
2023-02-19T06:19:12.784Z,16.52
2023-02-19T06:21:39.648Z,12.43
2023-02-19T06:24:09.184Z,10.73
2023-02-19T06:26:36.670Z,12.98
2023-02-19T06:29:03.853Z,13.75
2023-02-19T06:31:30.893Z,18.15
2023-02-19T06:33:57.743Z,15.13
2023-02-19T06:36:24.710Z,19.65
2023-02-19T06:38:51.904Z,14.95
2023-02-19T06:41:19.446Z,22.92
2023-02-19T06:43:46.733Z,16.83
2023-02-19T06:46:14.471Z,9.98
2023-02-19T06:48:44.138Z,10.38
2023-02-19T06:51:23.763Z,15.98
2023-02-19T06:53:50.640Z,14.73
2023-02-19T06:56:26.693Z,14.38
2023-02-19T06:58:57.252Z,13.20
2023-02-19T07:01:24.524Z,16.05
2023-02-19T07:03:52.679Z,12.95
2023-02-19T07:06:21.658Z,17.60
2023-02-19T07:08:49.370Z,15.77
2023-02-19T07:11:17.028Z,10.98
2023-02-19T07:13:43.834Z,15.35
2023-02-19T07:16:11.681Z,11.40
2023-02-19T07:18:40.526Z,10.43
2023-02-19T07:21:13.166Z,13.60
2023-02-19T07:23:41.526Z,11.90
2023-02-19T07:26:19.243Z,15.27
2023-02-19T07:28:49.128Z,10.85
2023-02-19T07:31:19.379Z,14.60
2023-02-19T07:33:47.638Z,9.30
2023-02-19T07:36:17.035Z,14.02
2023-02-19T07:38:45.096Z,11.52
2023-02-19T07:41:12.365Z,12.70
2023-02-19T07:43:40.368Z,13.00
2023-02-19T07:46:10.788Z,11.57
2023-02-19T07:48:40.273Z,18.65
2023-02-19T07:51:13.131Z,15.57
2023-02-19T07:53:40.098Z,14.77
2023-02-19T07:56:08.504Z,15.30
2023-02-19T07:58:35.606Z,15.38
2023-02-19T08:01:15.872Z,12.75
2023-02-19T08:03:43.697Z,10.88
2023-02-19T08:06:12.503Z,16.63
2023-02-19T08:08:40.472Z,15.48
2023-02-19T08:11:26.524Z,10.88
2023-02-19T08:13:53.968Z,17.73
2023-02-19T08:16:36.850Z,22.52
2023-02-19T08:19:08.913Z,13.70
2023-02-19T08:21:35.716Z,18.58
2023-02-19T08:24:02.538Z,17.42
2023-02-19T08:26:29.373Z,21.50
2023-02-19T08:28:56.526Z,14.07
2023-02-19T08:31:23.528Z,16.65
2023-02-19T08:33:50.597Z,14.05
2023-02-19T08:36:17.471Z,12.13
2023-02-19T08:38:44.621Z,14.90
2023-02-19T08:41:14.574Z,16.25
2023-02-19T08:43:42.912Z,10.80
2023-02-19T08:46:12.074Z,16.85
2023-02-19T08:48:40.269Z,16.50
2023-02-19T08:51:11.506Z,19.05
2023-02-19T08:53:41.105Z,12.82
2023-02-19T08:56:14.755Z,13.65
2023-02-19T08:58:42.468Z,17.10
2023-02-19T09:01:18.901Z,16.20
2023-02-19T09:03:45.947Z,14.18
2023-02-19T09:06:19.688Z,16.88
2023-02-19T09:08:46.750Z,17.20
2023-02-19T09:11:13.996Z,16.08
2023-02-19T09:13:41.262Z,13.80
2023-02-19T09:16:08.309Z,11.18
2023-02-19T09:18:35.815Z,18.98
2023-02-19T09:21:05.478Z,19.08
2023-02-19T09:23:37.194Z,17.58
2023-02-19T09:26:08.576Z,16.85
2023-02-19T09:28:36.220Z,22.13
2023-02-19T09:31:08.944Z,10.23
2023-02-19T09:33:36.208Z,10.93
2023-02-19T09:36:04.362Z,10.75
2023-02-19T09:38:31.153Z,12.52
2023-02-19T09:41:00.032Z,12.98
2023-02-19T09:43:29.937Z,11.15
2023-02-19T09:46:11.815Z,14.52
2023-02-19T09:48:38.633Z,9.57
2023-02-19T09:51:10.356Z,10.88
2023-02-19T09:53:45.664Z,9.75
2023-02-19T09:56:12.672Z,16.27
2023-02-19T09:58:56.004Z,9.65
2023-02-19T10:01:28.898Z,7.53
2023-02-19T10:03:55.948Z,14.57
2023-02-19T10:06:27.023Z,13.18
2023-02-19T10:09:23.948Z,10.60
2023-02-19T10:11:55.597Z,17.92
2023-02-19T10:14:51.135Z,10.23
2023-02-19T10:17:26.201Z,13.57
2023-02-19T10:19:54.162Z,14.50
2023-02-19T10:22:21.067Z,14.27
2023-02-19T10:24:54.160Z,14.27
2023-02-19T10:27:20.995Z,8.90
2023-02-19T10:29:50.451Z,12.80
2023-02-19T10:32:24.675Z,10.00
2023-02-19T10:35:16.251Z,9.93
2023-02-19T10:37:51.656Z,12.82
2023-02-19T10:40:29.068Z,9.70
2023-02-19T10:43:04.176Z,8.88
2023-02-19T10:45:47.819Z,8.38
2023-02-19T10:48:30.660Z,6.63
2023-02-19T10:51:05.129Z,8.02
2023-02-19T10:53:45.805Z,8.98
2023-02-19T10:56:31.418Z,8.88
2023-02-19T10:59:28.113Z,9.05
2023-02-19T11:01:57.660Z,13.32
2023-02-19T11:04:38.321Z,10.85
2023-02-19T11:07:18.390Z,11.10
2023-02-19T11:09:53.104Z,9.88
2023-02-19T11:12:35.771Z,12.60
2023-02-19T11:15:25.326Z,13.98
2023-02-19T11:18:00.123Z,8.63
2023-02-19T11:20:29.013Z,9.82
2023-02-19T11:23:15.123Z,13.98
2023-02-19T11:25:52.986Z,11.57
2023-02-19T11:28:43.114Z,7.32
2023-02-19T11:31:24.581Z,9.57
2023-02-19T11:33:59.165Z,10.85
2023-02-19T11:36:37.749Z,16.27
2023-02-19T11:42:07.245Z,10.70
2023-02-19T11:45:05.365Z,11.63
2023-02-19T11:47:50.962Z,8.50
2023-02-19T11:50:54.089Z,8.52
2023-02-19T11:53:34.823Z,5.57
2023-02-19T11:56:23.605Z,7.80
2023-02-19T11:59:21.677Z,10.05
2023-02-19T12:02:07.424Z,10.02
2023-02-19T12:05:04.322Z,13.05
2023-02-19T12:08:07.325Z,9.35
2023-02-19T12:10:49.641Z,11.57
2023-02-19T12:13:56.614Z,10.20
2023-02-19T12:16:55.173Z,7.45
2023-02-19T12:19:49.209Z,6.55
2023-02-19T12:22:50.962Z,10.23
2023-02-19T12:25:35.868Z,13.80
2023-02-19T12:29:00.482Z,9.48
2023-02-19T12:32:06.411Z,8.02
2023-02-19T12:34:40.237Z,8.98
2023-02-19T12:37:45.290Z,8.55
2023-02-19T12:40:24.733Z,8.38
2023-02-19T12:43:09.878Z,9.23
2023-02-19T12:46:06.359Z,10.07
2023-02-19T12:48:39.033Z,12.98
2023-02-19T12:51:10.781Z,8.05
2023-02-19T12:54:27.503Z,8.82
2023-02-19T12:57:10.825Z,6.68
2023-02-19T12:59:43.833Z,11.65
2023-02-19T13:02:29.676Z,9.23
2023-02-19T13:05:41.387Z,8.05
2023-02-19T13:08:20.527Z,3.50
2023-02-19T13:11:02.581Z,5.07
2023-02-19T13:13:38.692Z,3.08
2023-02-19T13:16:18.773Z,1.83
2023-02-19T13:18:55.365Z,7.25
2023-02-19T13:21:46.690Z,3.60
2023-02-19T13:24:26.303Z,2.67
2023-02-19T13:27:31.966Z,3.20
2023-02-19T13:30:30.353Z,2.50
2023-02-19T13:33:34.225Z,7.50
2023-02-19T13:38:43.329Z,11.07
2023-02-19T13:41:35.255Z,19.45
2023-02-19T13:44:06.659Z,7.05
2023-02-19T13:46:47.091Z,7.85
2023-02-19T13:49:24.602Z,5.28
2023-02-19T13:51:59.333Z,10.32
2023-02-19T13:54:32.020Z,7.13
2023-02-19T13:57:23.482Z,4.30
2023-02-19T13:59:52.656Z,3.95
2023-02-19T14:02:26.714Z,6.82
2023-02-19T14:05:10.900Z,3.67
2023-02-19T14:07:54.284Z,6.35
2023-02-19T14:10:45.988Z,10.35
2023-02-19T14:13:47.546Z,11.93
2023-02-19T14:16:49.115Z,10.82
2023-02-19T14:19:52.234Z,11.70
2023-02-19T14:22:52.082Z,13.48
2023-02-19T14:25:24.498Z,6.68
2023-02-19T14:28:16.486Z,6.93
2023-02-19T14:31:04.903Z,7.65
2023-02-19T14:33:37.672Z,9.57
2023-02-19T14:36:17.933Z,4.95
2023-02-19T14:38:59.666Z,8.68
2023-02-19T14:41:30.686Z,7.55
2023-02-19T14:44:01.022Z,6.95
2023-02-19T14:46:32.248Z,6.10
2023-02-19T14:49:15.196Z,4.05
2023-02-19T14:51:49.486Z,7.68
2023-02-19T14:54:35.716Z,7.07
2023-02-19T14:57:11.876Z,6.38
2023-02-19T14:59:38.749Z,5.45
2023-02-19T15:02:21.240Z,5.00
2023-02-19T15:04:48.454Z,9.82
2023-02-19T15:07:23.440Z,7.15
2023-02-19T15:09:57.068Z,6.95
2023-02-19T15:12:30.286Z,6.47
2023-02-19T15:15:04.887Z,6.43
2023-02-19T15:17:36.868Z,8.52
2023-02-19T15:20:15.644Z,7.93
2023-02-19T15:22:42.692Z,11.82
2023-02-19T15:25:18.978Z,6.68
2023-02-19T15:27:46.079Z,5.18
2023-02-19T15:30:24.653Z,7.22
2023-02-19T15:35:26.638Z,10.35
2023-02-19T15:37:57.697Z,13.15
2023-02-19T15:40:32.399Z,5.93
2023-02-19T15:43:00.942Z,10.80
2023-02-19T15:45:44.582Z,10.65
2023-02-19T15:48:36.846Z,6.85
2023-02-19T15:51:16.062Z,12.50
2023-02-19T15:53:51.003Z,8.40
2023-02-19T15:56:29.511Z,7.53
2023-02-19T15:59:31.225Z,11.05
2023-02-19T16:02:00.739Z,12.40
2023-02-19T16:04:27.789Z,13.70
2023-02-19T16:06:56.538Z,8.95
2023-02-19T16:09:41.122Z,8.48
2023-02-19T16:12:23.725Z,10.30
2023-02-19T16:14:51.323Z,9.13
2023-02-19T16:17:27.824Z,10.43
2023-02-19T16:20:02.304Z,9.43
2023-02-19T16:22:40.576Z,8.48
2023-02-19T16:25:21.658Z,9.48
2023-02-19T16:27:48.618Z,11.32
2023-02-19T16:30:25.271Z,12.07
2023-02-19T16:33:38.477Z,8.98
2023-02-19T16:36:41.913Z,9.10
2023-02-19T16:39:08.680Z,8.65
2023-02-19T16:42:02.281Z,10.30
2023-02-19T16:44:30.938Z,8.25
2023-02-19T16:47:03.735Z,8.48
2023-02-19T16:49:31.322Z,9.00
2023-02-19T16:52:04.496Z,8.90
2023-02-19T16:54:31.711Z,9.75
2023-02-19T16:56:58.555Z,9.85
2023-02-19T16:59:25.358Z,10.60
2023-02-19T17:01:52.356Z,7.72
2023-02-19T17:04:19.345Z,7.25
2023-02-19T17:06:47.514Z,7.93
2023-02-19T17:09:14.334Z,8.30
2023-02-19T17:11:41.493Z,5.57
2023-02-19T17:14:09.278Z,7.88
2023-02-19T17:16:40.015Z,9.77
2023-02-19T17:19:15.794Z,8.48
2023-02-19T17:21:43.210Z,8.07
2023-02-19T17:24:09.993Z,8.45
2023-02-19T17:26:37.244Z,8.05
2023-02-19T17:29:07.355Z,5.75
2023-02-19T17:31:34.408Z,8.07
2023-02-19T17:34:01.409Z,10.80
2023-02-19T17:36:32.753Z,6.45
2023-02-19T17:39:02.566Z,10.43
2023-02-19T17:41:30.128Z,7.72
2023-02-19T17:44:00.880Z,6.95
2023-02-19T17:46:27.906Z,7.28
2023-02-19T17:48:55.596Z,6.72
2023-02-19T17:51:22.795Z,7.05
2023-02-19T17:53:49.890Z,9.75
2023-02-19T17:56:26.395Z,10.82
2023-02-19T17:58:55.843Z,10.98
2023-02-19T18:01:23.338Z,9.30
2023-02-19T18:03:51.065Z,6.72
2023-02-19T18:06:18.518Z,6.25
2023-02-19T18:08:50.996Z,8.38
2023-02-19T18:11:19.604Z,6.57
2023-02-19T18:13:48.034Z,7.93
2023-02-19T18:16:16.111Z,7.32
2023-02-19T18:18:44.546Z,8.82
2023-02-19T18:21:13.759Z,7.38
2023-02-19T18:23:40.829Z,4.40
2023-02-19T18:26:10.438Z,6.40
2023-02-19T18:28:37.971Z,6.25
2023-02-19T18:31:05.793Z,7.15
2023-02-19T18:33:35.092Z,4.85
2023-02-19T18:36:02.280Z,6.78
2023-02-19T18:38:29.171Z,8.77
2023-02-19T18:40:58.428Z,5.57
2023-02-19T18:43:26.088Z,8.40
2023-02-19T18:45:53.012Z,11.15
2023-02-19T18:48:20.019Z,8.82
2023-02-19T18:50:47.508Z,7.88
2023-02-19T18:53:14.384Z,7.55
2023-02-19T18:55:41.458Z,6.80
2023-02-19T18:58:08.256Z,7.55
2023-02-19T19:00:35.364Z,7.63
2023-02-19T19:03:02.187Z,8.32
2023-02-19T19:05:29.169Z,3.92
2023-02-19T19:07:59.269Z,5.45
2023-02-19T19:10:26.846Z,4.63
2023-02-19T19:12:54.560Z,3.83
2023-02-19T19:15:22.976Z,5.25
2023-02-19T19:17:50.308Z,4.65
2023-02-19T19:20:20.759Z,4.88
2023-02-19T19:22:53.102Z,8.80
2023-02-19T19:25:22.801Z,5.70
2023-02-19T19:27:53.315Z,4.70
2023-02-19T19:30:20.573Z,5.70
2023-02-19T19:32:52.646Z,7.03
2023-02-19T19:35:21.954Z,6.43
2023-02-19T19:37:49.671Z,7.22
2023-02-19T19:40:18.466Z,5.45
2023-02-19T19:42:46.063Z,10.27
2023-02-19T19:45:14.427Z,6.03
2023-02-19T19:47:41.224Z,7.30
2023-02-19T19:50:08.678Z,6.05
2023-02-19T19:52:35.552Z,4.80
2023-02-19T19:55:02.576Z,6.80
2023-02-19T19:57:29.387Z,4.82
2023-02-19T19:59:56.146Z,7.85
2023-02-19T20:02:23.945Z,5.65
2023-02-19T20:04:51.148Z,2.60
2023-02-19T20:07:18.324Z,7.30
2023-02-19T20:09:50.109Z,3.92
2023-02-19T20:12:18.200Z,6.20
2023-02-19T20:14:46.931Z,4.18
2023-02-19T20:17:15.074Z,5.57
2023-02-19T20:19:42.104Z,3.15
2023-02-19T20:22:08.862Z,3.78
2023-02-19T20:24:35.708Z,4.18
2023-02-19T20:27:02.942Z,2.90
2023-02-19T20:29:33.337Z,6.05
2023-02-19T20:32:02.483Z,4.65
2023-02-19T20:34:30.385Z,4.35
2023-02-19T20:36:59.175Z,5.05
2023-02-19T20:39:28.997Z,9.48
2023-02-19T20:41:57.715Z,6.50
2023-02-19T20:44:27.186Z,5.82
2023-02-19T20:46:55.837Z,6.35
2023-02-19T20:49:27.191Z,5.47
2023-02-19T20:51:58.220Z,9.25
2023-02-19T20:54:31.348Z,7.85
2023-02-19T20:57:02.289Z,5.68
2023-02-19T20:59:35.009Z,6.65
2023-02-19T21:02:22.321Z,8.15
2023-02-19T21:04:49.238Z,5.32
2023-02-19T21:07:16.780Z,5.28
2023-02-19T21:09:43.546Z,7.90
2023-02-19T21:12:10.497Z,5.25
2023-02-19T21:14:37.423Z,7.43
2023-02-19T21:17:05.470Z,4.15
2023-02-19T21:19:32.480Z,9.02
2023-02-19T21:21:59.559Z,7.63
2023-02-19T21:24:26.448Z,8.88
2023-02-19T21:26:53.324Z,6.85
2023-02-19T21:29:22.368Z,9.30
2023-02-19T21:31:56.708Z,7.38
2023-02-19T21:34:29.666Z,4.03
2023-02-19T21:36:56.997Z,6.53
2023-02-19T21:39:26.176Z,8.23
2023-02-19T21:41:53.957Z,5.50
2023-02-19T21:44:21.717Z,9.60
2023-02-19T21:46:48.798Z,9.32
2023-02-19T21:49:16.418Z,5.30
2023-02-19T21:51:45.498Z,10.02
2023-02-19T21:54:17.558Z,5.60
2023-02-19T21:56:44.997Z,8.60
2023-02-19T21:59:12.444Z,9.02
2023-02-19T22:01:39.639Z,6.88
2023-02-19T22:04:08.651Z,9.95
2023-02-19T22:06:35.632Z,6.93
2023-02-19T22:09:03.839Z,15.05
2023-02-19T22:11:30.680Z,10.13
2023-02-19T22:13:58.700Z,8.73
2023-02-19T22:16:25.928Z,7.22
2023-02-19T22:18:57.084Z,8.52
2023-02-19T22:21:27.936Z,11.52
2023-02-19T22:23:55.693Z,14.05
2023-02-19T22:26:32.627Z,16.80
2023-02-19T22:28:59.872Z,10.02
2023-02-19T22:31:28.362Z,10.18
2023-02-19T22:33:57.191Z,13.10
2023-02-19T22:36:28.458Z,21.33
2023-02-19T22:38:55.253Z,14.20
2023-02-19T22:41:22.838Z,12.88
2023-02-19T22:43:50.935Z,18.60
2023-02-19T22:46:21.717Z,17.02
2023-02-19T22:48:48.822Z,18.80
2023-02-19T22:51:18.875Z,15.45
2023-02-19T22:53:58.062Z,20.55
2023-02-19T22:56:27.774Z,23.67
2023-02-19T22:58:57.070Z,18.17
2023-02-19T23:01:25.226Z,15.85
2023-02-19T23:03:58.870Z,16.85
2023-02-19T23:06:34.435Z,22.92
2023-02-19T23:09:11.032Z,23.65
2023-02-19T23:11:39.216Z,22.45
2023-02-19T23:14:07.704Z,20.15
2023-02-19T23:16:36.620Z,18.15
2023-02-19T23:19:10.469Z,17.83
2023-02-19T23:21:42.468Z,15.02
2023-02-19T23:24:10.659Z,16.90
2023-02-19T23:26:43.679Z,23.25
2023-02-19T23:29:15.754Z,15.25
2023-02-19T23:31:45.019Z,27.52
2023-02-19T23:34:12.549Z,22.02
2023-02-19T23:36:49.263Z,22.25
2023-02-19T23:39:19.825Z,16.77
2023-02-19T23:41:50.799Z,19.77
2023-02-19T23:44:18.715Z,25.67
2023-02-19T23:46:45.873Z,21.55
2023-02-19T23:49:13.493Z,21.50
2023-02-19T23:51:40.395Z,19.00
2023-02-19T23:54:08.101Z,19.20
2023-02-19T23:56:35.661Z,15.07
2023-02-19T23:59:02.541Z,15.65
